In Rescue
 
Open Full Screen Window  High Contrast Mode
Wind Gusting 28 knots
21
September 21, 2019 8:15 AM CDT
Present Weather: Heavy Thunderstorms in the Vicinity
Weather Information
Wind Direction
  170 °
Wind Speed
  21 kt (24 mph)
Wind Gust
  28 kt (32 mph)
Altimeter
29.66 in
Visibility
2 1/2 SM
Temperature
21° C
70° F
Dewpoint
19° C
66° F
Humidity
88%
1hr Rain Fall
00.09 in.
24hr Rain Fall
00.09 in.
Sky Condition
Overcast @ 2,300 ft
Broken @ 1,800 ft
IFR

METAR KBJI 211315Z AUTO 17021G28KT 2 1/2SM +VCTSRA BKN018 OVC023 21/19 A2966 RMK AO2 LTG DSNT N AND NW P0009 T02110193

FAA Disclaimer: The data displayed is for advisory purposes only and is not to be used for flight planning or operations.